createdAt,value
2017-10-16T00:00:50.004Z,8.37
2017-10-16T00:03:17.542Z,8.88
2017-10-16T00:05:45.095Z,8.80
2017-10-16T00:08:12.624Z,9.70
2017-10-16T00:10:40.928Z,8.67
2017-10-16T00:13:08.494Z,10.73
2017-10-16T00:15:36.129Z,14.17
2017-10-16T00:18:04.428Z,10.40
2017-10-16T00:20:32.020Z,8.40
2017-10-16T00:22:59.546Z,8.40
2017-10-16T00:25:27.076Z,9.93
2017-10-16T00:27:54.634Z,8.40
2017-10-16T00:30:22.173Z,8.77
2017-10-16T00:32:49.703Z,7.20
2017-10-16T00:35:17.268Z,7.60
2017-10-16T00:37:44.805Z,7.43
2017-10-16T00:40:12.336Z,8.00
2017-10-16T00:42:40.699Z,7.67
2017-10-16T00:45:08.227Z,7.23
2017-10-16T00:47:36.144Z,10.03
2017-10-16T00:50:03.693Z,6.47
2017-10-16T00:52:32.005Z,8.17
2017-10-16T00:54:59.541Z,8.80
2017-10-16T00:57:27.864Z,9.50
2017-10-16T00:59:55.399Z,8.95
2017-10-16T01:02:22.927Z,12.70
2017-10-16T01:04:50.516Z,16.60
2017-10-16T01:07:18.064Z,7.43
2017-10-16T01:09:46.372Z,7.10
2017-10-16T01:12:25.263Z,9.05
2017-10-16T01:17:25.642Z,7.87
2017-10-16T01:19:53.235Z,17.63
2017-10-16T01:22:20.780Z,6.95
2017-10-16T01:24:48.321Z,15.93
2017-10-16T01:27:16.451Z,6.27
2017-10-16T01:29:44.747Z,8.57
2017-10-16T01:32:12.284Z,5.80
2017-10-16T01:34:40.623Z,6.60
2017-10-16T01:37:08.148Z,5.80
2017-10-16T01:39:35.672Z,6.30
2017-10-16T01:42:03.256Z,6.57
2017-10-16T01:44:31.547Z,6.43
2017-10-16T01:46:59.075Z,6.20
2017-10-16T01:49:26.636Z,5.97
2017-10-16T01:51:54.164Z,8.60
2017-10-16T01:54:21.701Z,6.97
2017-10-16T01:56:49.284Z,7.27
2017-10-16T01:59:16.812Z,6.00
2017-10-16T02:01:44.343Z,5.30
2017-10-16T02:04:11.932Z,10.13
2017-10-16T02:06:39.467Z,13.93
2017-10-16T02:09:07.774Z,7.30
2017-10-16T02:11:36.096Z,6.63
2017-10-16T02:14:03.632Z,5.80
2017-10-16T02:16:31.169Z,5.77
2017-10-16T02:18:58.735Z,5.10
2017-10-16T02:21:26.272Z,7.90
2017-10-16T02:23:53.828Z,8.53
2017-10-16T02:26:22.172Z,5.57
2017-10-16T02:28:49.704Z,6.60
2017-10-16T02:31:17.230Z,5.50
2017-10-16T02:33:44.794Z,7.77
2017-10-16T02:36:12.328Z,5.40
2017-10-16T02:38:40.624Z,12.43
2017-10-16T02:41:08.183Z,5.53
2017-10-16T02:43:35.711Z,6.30
2017-10-16T02:46:03.235Z,5.57
2017-10-16T02:48:30.827Z,5.97
2017-10-16T02:50:58.575Z,6.07
2017-10-16T02:53:26.108Z,5.63
2017-10-16T02:55:53.682Z,6.53
2017-10-16T02:58:21.210Z,6.00
2017-10-16T03:00:48.745Z,7.53
2017-10-16T03:03:16.428Z,7.87
2017-10-16T03:05:43.964Z,8.83
2017-10-16T03:08:12.269Z,6.93
2017-10-16T03:10:39.869Z,6.60
2017-10-16T03:13:07.392Z,7.07
2017-10-16T03:15:34.928Z,9.57
2017-10-16T03:18:02.490Z,6.07
2017-10-16T03:20:30.788Z,7.63
2017-10-16T03:22:58.319Z,14.93
2017-10-16T03:25:25.887Z,7.73
2017-10-16T03:27:53.428Z,4.87
2017-10-16T03:30:21.423Z,12.90
2017-10-16T03:32:49.771Z,5.70
2017-10-16T03:35:17.295Z,10.93
2017-10-16T03:37:44.815Z,10.43
2017-10-16T03:40:12.379Z,5.30
2017-10-16T03:42:40.671Z,7.67
2017-10-16T03:45:08.195Z,7.30
2017-10-16T03:47:35.751Z,6.10
2017-10-16T03:50:03.287Z,5.40
2017-10-16T03:52:33.255Z,6.80
2017-10-16T03:55:00.864Z,12.83
2017-10-16T03:57:28.395Z,5.43
2017-10-16T03:59:55.912Z,9.37
2017-10-16T04:02:23.488Z,6.77
2017-10-16T04:04:51.778Z,6.07
2017-10-16T04:07:19.311Z,5.45
2017-10-16T04:09:46.865Z,8.47
2017-10-16T04:12:15.455Z,6.87
2017-10-16T04:14:42.983Z,9.83
2017-10-16T04:17:10.565Z,25.00
2017-10-16T04:19:38.100Z,14.80
2017-10-16T04:22:05.642Z,7.83
2017-10-16T04:24:33.200Z,6.62
2017-10-16T04:27:00.749Z,16.83
2017-10-16T04:29:28.282Z,17.47
2017-10-16T04:31:56.652Z,6.53
2017-10-16T04:34:24.179Z,5.80
2017-10-16T04:36:51.720Z,10.70
2017-10-16T04:39:19.320Z,25.57
2017-10-16T04:41:46.855Z,42.57
2017-10-16T04:44:25.327Z,29.15
2017-10-16T04:49:25.307Z,30.70
2017-10-16T04:51:52.863Z,16.67
2017-10-16T04:54:20.640Z,33.20
2017-10-16T04:56:48.167Z,11.03
2017-10-16T04:59:16.699Z,8.60
2017-10-16T05:01:44.226Z,21.37
2017-10-16T05:04:11.760Z,16.13
2017-10-16T05:06:39.324Z,22.60
2017-10-16T05:09:06.851Z,12.93
2017-10-16T05:11:37.595Z,12.60
2017-10-16T05:14:05.152Z,8.70
2017-10-16T05:16:32.680Z,18.37
2017-10-16T05:19:01.307Z,11.33
2017-10-16T05:21:29.648Z,7.70
2017-10-16T05:23:57.193Z,7.87
2017-10-16T05:26:24.725Z,13.60
2017-10-16T05:28:52.275Z,15.87
2017-10-16T05:31:19.799Z,14.55
2017-10-16T05:33:47.327Z,13.93
2017-10-16T05:36:17.180Z,18.98
2017-10-16T05:38:45.463Z,17.20
2017-10-16T05:41:25.362Z,12.80
2017-10-16T05:46:24.619Z,17.30
2017-10-16T05:48:52.943Z,13.83
2017-10-16T05:51:20.671Z,13.90
2017-10-16T05:53:48.202Z,14.10
2017-10-16T05:56:17.717Z,10.70
2017-10-16T05:58:45.249Z,9.60
2017-10-16T06:01:13.692Z,9.23
2017-10-16T06:03:41.275Z,9.70
2017-10-16T06:06:08.799Z,13.73
2017-10-16T06:08:36.327Z,9.83
2017-10-16T06:11:03.888Z,10.17
2017-10-16T06:13:31.416Z,7.23
2017-10-16T06:15:58.936Z,7.50
2017-10-16T06:18:26.497Z,14.02
2017-10-16T06:20:54.896Z,9.20
2017-10-16T06:23:22.419Z,7.67
2017-10-16T06:25:50.352Z,12.73
2017-10-16T06:28:17.883Z,15.13
2017-10-16T06:30:45.419Z,7.33
2017-10-16T06:33:23.547Z,9.50
2017-10-16T06:35:51.128Z,7.87
2017-10-16T06:38:18.659Z,14.38
2017-10-16T06:40:46.217Z,7.50
2017-10-16T06:43:25.478Z,6.28
2017-10-16T06:47:01.927Z,7.28
2017-10-16T06:49:30.219Z,10.48
2017-10-16T06:51:57.751Z,12.67
2017-10-16T06:54:26.064Z,9.00
2017-10-16T06:56:53.588Z,4.23
2017-10-16T06:59:21.892Z,9.85
2017-10-16T07:01:49.459Z,7.93
2017-10-16T07:04:16.987Z,6.87
2017-10-16T07:06:47.331Z,8.43
2017-10-16T07:09:17.262Z,5.83
2017-10-16T07:11:44.791Z,17.93
2017-10-16T07:14:13.999Z,8.63
2017-10-16T07:16:41.564Z,11.50
2017-10-16T07:19:09.091Z,9.50
2017-10-16T07:21:36.615Z,8.97
2017-10-16T07:24:04.163Z,6.57
2017-10-16T07:26:31.699Z,11.03
2017-10-16T07:28:59.236Z,7.50
2017-10-16T07:31:26.816Z,7.43
2017-10-16T07:33:54.347Z,6.53
2017-10-16T07:36:22.149Z,18.50
2017-10-16T07:38:49.712Z,10.43
2017-10-16T07:41:17.248Z,12.00
2017-10-16T07:43:45.893Z,5.60
2017-10-16T07:46:15.372Z,8.40
2017-10-16T07:48:42.904Z,6.87
2017-10-16T07:51:11.204Z,4.70
2017-10-16T07:53:38.788Z,3.10
2017-10-16T07:56:06.324Z,7.27
2017-10-16T07:58:33.852Z,7.70
2017-10-16T08:01:02.168Z,5.53
2017-10-16T08:03:29.695Z,7.40
2017-10-16T08:05:57.996Z,5.53
2017-10-16T08:08:26.331Z,8.30
2017-10-16T08:10:53.850Z,3.27
2017-10-16T08:13:21.381Z,8.60
2017-10-16T08:15:49.383Z,12.30
2017-10-16T08:18:16.929Z,5.93
2017-10-16T08:20:44.464Z,5.40
2017-10-16T08:23:12.784Z,6.87
2017-10-16T08:25:40.315Z,16.50
2017-10-16T08:28:07.849Z,4.43
2017-10-16T08:30:35.945Z,2.90
2017-10-16T08:33:03.475Z,3.28
2017-10-16T08:35:31.772Z,3.10
2017-10-16T08:37:59.364Z,7.60
2017-10-16T08:40:26.900Z,5.47
2017-10-16T08:42:55.005Z,9.40
2017-10-16T08:45:22.599Z,3.63
2017-10-16T08:47:50.141Z,4.07
2017-10-16T08:50:17.700Z,4.33
2017-10-16T08:52:45.292Z,5.70
2017-10-16T08:55:14.528Z,2.30
2017-10-16T08:57:42.062Z,4.20
2017-10-16T09:00:10.072Z,4.57
2017-10-16T09:02:37.601Z,2.40
2017-10-16T09:05:05.462Z,8.60
2017-10-16T09:07:33.029Z,15.50
2017-10-16T09:10:00.568Z,8.60
2017-10-16T09:12:28.113Z,20.50
2017-10-16T09:14:56.452Z,4.97
2017-10-16T09:17:24.011Z,6.65
2017-10-16T09:19:51.556Z,4.33
2017-10-16T09:22:19.140Z,6.80
2017-10-16T09:24:46.671Z,3.50
2017-10-16T09:27:16.349Z,6.82
2017-10-16T09:29:43.911Z,8.43
2017-10-16T09:32:11.451Z,4.55
2017-10-16T09:34:39.773Z,10.20
2017-10-16T09:37:08.112Z,3.13
2017-10-16T09:39:35.643Z,9.37
2017-10-16T09:42:03.175Z,6.37
2017-10-16T09:44:31.555Z,4.37
2017-10-16T09:46:59.108Z,4.30
2017-10-16T09:49:26.649Z,6.30
2017-10-16T09:51:54.212Z,3.73
2017-10-16T09:54:21.746Z,4.03
2017-10-16T09:56:50.048Z,3.37
2017-10-16T09:59:17.608Z,8.90
2017-10-16T10:01:45.476Z,3.20
2017-10-16T10:04:14.620Z,4.20
2017-10-16T10:06:42.219Z,7.90
2017-10-16T10:09:09.748Z,3.87
2017-10-16T10:11:38.109Z,4.97
2017-10-16T10:14:05.667Z,9.70
2017-10-16T10:16:33.199Z,5.90
2017-10-16T10:19:00.728Z,8.90
2017-10-16T10:21:28.568Z,5.35
2017-10-16T10:23:56.106Z,7.50
2017-10-16T10:26:23.650Z,11.55
2017-10-16T10:28:51.231Z,17.40
2017-10-16T10:31:18.772Z,7.23
2017-10-16T10:33:46.312Z,5.50
2017-10-16T10:36:15.584Z,5.25
2017-10-16T10:38:43.111Z,8.27
2017-10-16T10:41:10.643Z,8.37
2017-10-16T10:43:38.968Z,16.37
2017-10-16T10:46:06.496Z,9.43
2017-10-16T10:48:34.031Z,14.03
2017-10-16T10:51:01.641Z,5.50
2017-10-16T10:53:29.170Z,7.50
2017-10-16T10:55:56.709Z,8.50
2017-10-16T10:58:24.680Z,9.13
2017-10-16T11:00:52.215Z,9.00
2017-10-16T11:03:21.112Z,13.90
2017-10-16T11:05:48.678Z,8.77
2017-10-16T11:08:16.398Z,13.50
2017-10-16T11:10:43.923Z,6.73
2017-10-16T11:13:11.495Z,6.70
2017-10-16T11:15:39.031Z,9.90
2017-10-16T11:18:06.606Z,14.87
2017-10-16T11:20:34.164Z,9.77
2017-10-16T11:23:01.814Z,15.43
2017-10-16T11:25:29.384Z,8.65
2017-10-16T11:27:57.074Z,13.97
2017-10-16T11:30:24.620Z,8.90
2017-10-16T11:38:33.579Z,10.70
2017-10-16T11:41:01.107Z,21.07
2017-10-16T11:43:28.728Z,10.30
2017-10-16T11:45:56.300Z,7.30
2017-10-16T11:48:23.834Z,12.63
2017-10-16T11:50:51.577Z,9.53
2017-10-16T11:53:19.144Z,9.47
2017-10-16T11:55:46.687Z,11.67
2017-10-16T11:58:16.287Z,9.32
2017-10-16T12:00:43.884Z,13.20
2017-10-16T12:03:11.424Z,13.73
2017-10-16T12:05:40.075Z,9.50
2017-10-16T12:08:07.652Z,7.60
2017-10-16T12:10:35.183Z,9.50
2017-10-16T12:13:02.947Z,7.80
2017-10-16T12:15:30.520Z,6.25
2017-10-16T12:17:58.832Z,7.87
2017-10-16T12:20:26.367Z,18.43
2017-10-16T12:22:54.003Z,10.20
2017-10-16T12:25:21.539Z,11.30
2017-10-16T12:27:49.092Z,8.27
2017-10-16T12:30:16.664Z,16.20
2017-10-16T12:32:44.572Z,7.50
2017-10-16T12:35:12.107Z,10.23
2017-10-16T12:37:39.667Z,7.80
2017-10-16T12:40:07.211Z,13.63
2017-10-16T12:42:34.750Z,12.13
2017-10-16T12:45:02.347Z,7.27
2017-10-16T12:47:29.888Z,16.30
2017-10-16T12:49:57.429Z,10.45
2017-10-16T12:52:25.759Z,13.60
2017-10-16T12:54:53.315Z,15.80
2017-10-16T12:57:21.615Z,7.33
2017-10-16T12:59:49.201Z,9.27
2017-10-16T13:02:16.754Z,10.50
2017-10-16T13:04:44.296Z,9.57
2017-10-16T13:07:13.235Z,6.13
2017-10-16T13:09:40.819Z,9.70
2017-10-16T13:12:08.357Z,12.00
2017-10-16T13:14:35.948Z,8.77
2017-10-16T13:17:04.266Z,12.73
2017-10-16T13:19:31.850Z,6.60
2017-10-16T13:21:59.435Z,8.60
2017-10-16T13:24:26.984Z,16.70
2017-10-16T13:26:54.535Z,12.50
2017-10-16T13:29:22.143Z,11.00
2017-10-16T13:31:49.686Z,9.80
2017-10-16T13:34:17.257Z,7.47
2017-10-16T13:36:44.868Z,10.17
2017-10-16T13:39:12.416Z,6.67
2017-10-16T13:41:40.090Z,11.90
2017-10-16T13:44:07.691Z,10.27
2017-10-16T13:46:36.008Z,5.90
2017-10-16T13:49:03.571Z,11.93
2017-10-16T13:51:31.188Z,31.87
2017-10-16T13:53:58.802Z,8.13
2017-10-16T13:56:26.363Z,13.70
2017-10-16T13:58:53.942Z,9.53
2017-10-16T14:01:21.520Z,7.43
2017-10-16T14:03:49.067Z,10.70
2017-10-16T14:06:16.681Z,7.67
2017-10-16T14:08:44.645Z,11.57
2017-10-16T14:11:12.195Z,7.23
2017-10-16T14:13:40.572Z,8.20
2017-10-16T14:16:08.918Z,10.00
2017-10-16T14:18:36.632Z,17.37
2017-10-16T14:21:04.201Z,8.60
2017-10-16T14:23:31.743Z,10.35
2017-10-16T14:25:59.282Z,7.80
2017-10-16T14:28:26.867Z,14.87
2017-10-16T14:30:54.409Z,9.70
2017-10-16T14:33:21.939Z,7.60
2017-10-16T14:35:50.088Z,9.82
2017-10-16T14:38:17.629Z,8.70
2017-10-16T14:40:45.172Z,10.50
2017-10-16T14:43:13.669Z,10.80
2017-10-16T14:45:41.228Z,12.97
2017-10-16T14:48:08.759Z,9.20
2017-10-16T14:50:36.348Z,12.40
2017-10-16T14:53:03.880Z,14.03
2017-10-16T14:55:32.188Z,13.67
2017-10-16T14:57:59.788Z,11.80
2017-10-16T15:00:27.327Z,14.07
2017-10-16T15:02:54.865Z,10.57
2017-10-16T15:05:22.448Z,14.33
2017-10-16T15:07:49.986Z,19.33
2017-10-16T15:10:18.127Z,14.70
2017-10-16T15:12:45.775Z,11.00
2017-10-16T15:15:15.411Z,8.35
2017-10-16T15:17:43.699Z,15.37
2017-10-16T15:20:11.290Z,12.67
2017-10-16T15:22:38.823Z,8.37
2017-10-16T15:25:06.348Z,8.50
2017-10-16T15:27:34.988Z,10.70
2017-10-16T15:30:02.536Z,9.32
2017-10-16T15:32:30.075Z,14.67
2017-10-16T15:34:57.656Z,20.07
2017-10-16T15:37:25.193Z,11.53
2017-10-16T15:39:52.726Z,11.10
2017-10-16T15:42:20.331Z,11.68
2017-10-16T15:44:47.867Z,12.90
2017-10-16T15:47:16.515Z,11.82
2017-10-16T15:49:44.091Z,13.53
2017-10-16T15:52:11.639Z,19.63
2017-10-16T15:54:39.177Z,11.33
2017-10-16T15:57:06.751Z,18.53
2017-10-16T15:59:34.286Z,13.53
2017-10-16T16:02:01.824Z,19.43
2017-10-16T16:04:29.538Z,15.93
2017-10-16T16:06:57.063Z,16.17
2017-10-16T16:09:24.603Z,14.80
2017-10-16T16:11:52.663Z,15.50
2017-10-16T16:14:20.973Z,24.48
2017-10-16T16:16:48.522Z,20.20
2017-10-16T16:19:16.472Z,19.53
2017-10-16T16:21:44.015Z,23.33
2017-10-16T16:24:12.341Z,16.92
2017-10-16T16:26:39.975Z,20.87
2017-10-16T16:29:07.520Z,19.27
2017-10-16T16:31:35.828Z,18.83
2017-10-16T16:34:03.415Z,25.47
2017-10-16T16:36:30.951Z,17.67
2017-10-16T16:38:58.487Z,20.97
2017-10-16T16:41:26.831Z,15.05
2017-10-16T16:43:54.371Z,17.00
2017-10-16T16:46:21.909Z,16.62
2017-10-16T16:48:49.514Z,21.92
2017-10-16T16:51:17.053Z,18.93
2017-10-16T16:53:44.592Z,15.80
2017-10-16T16:56:12.167Z,22.60
2017-10-16T16:58:39.703Z,21.60
2017-10-16T17:01:07.272Z,21.37
2017-10-16T17:03:34.935Z,19.25
2017-10-16T17:06:02.495Z,23.27
2017-10-16T17:08:30.031Z,17.50
2017-10-16T17:10:57.637Z,18.02
2017-10-16T17:13:25.180Z,32.70
2017-10-16T17:15:52.745Z,23.97
2017-10-16T17:18:20.514Z,21.92
2017-10-16T17:20:48.042Z,21.63
2017-10-16T17:23:16.413Z,29.40
2017-10-16T17:25:43.992Z,21.70
2017-10-16T17:28:11.899Z,19.58
2017-10-16T17:30:39.561Z,19.10
2017-10-16T17:33:07.219Z,22.27
2017-10-16T17:35:34.854Z,29.70
2017-10-16T17:38:02.384Z,23.57
2017-10-16T17:40:29.958Z,24.47
2017-10-16T17:42:59.474Z,18.60
2017-10-16T17:45:27.071Z,31.03
2017-10-16T17:47:54.659Z,22.30
2017-10-16T17:50:22.201Z,31.73
2017-10-16T17:52:49.875Z,27.23
2017-10-16T17:55:18.260Z,26.65
2017-10-16T17:57:45.787Z,26.97
2017-10-16T18:00:15.677Z,23.10
2017-10-16T18:02:43.246Z,35.17
2017-10-16T18:05:10.770Z,24.20
2017-10-16T18:07:38.307Z,23.30
2017-10-16T18:10:05.891Z,35.23
2017-10-16T18:12:33.444Z,22.58
2017-10-16T18:15:02.243Z,31.40
2017-10-16T18:17:30.262Z,23.40
2017-10-16T18:19:57.795Z,46.10
2017-10-16T18:22:25.369Z,22.45
2017-10-16T18:24:52.956Z,25.23
2017-10-16T18:27:20.582Z,24.46
2017-10-16T18:29:48.304Z,31.83
2017-10-16T18:32:17.872Z,42.04
2017-10-16T18:34:46.408Z,31.90
2017-10-16T18:37:15.848Z,38.17
2017-10-16T18:39:47.237Z,29.03
2017-10-16T18:44:52.997Z,30.03
2017-10-16T18:47:22.203Z,21.02
2017-10-16T18:49:49.861Z,32.37
2017-10-16T18:52:17.860Z,19.05
2017-10-16T18:54:45.503Z,30.80
2017-10-16T18:57:19.281Z,16.77
2017-10-16T18:59:46.914Z,25.77
2017-10-16T19:02:25.340Z,23.05
2017-10-16T19:08:47.383Z,28.93
2017-10-16T19:11:16.552Z,27.27
2017-10-16T19:13:44.195Z,24.43
2017-10-16T19:16:12.271Z,27.60
2017-10-16T19:18:39.813Z,25.63
2017-10-16T19:21:07.391Z,26.13
2017-10-16T19:23:34.972Z,21.23
2017-10-16T19:26:02.527Z,24.67
2017-10-16T19:28:32.642Z,20.90
2017-10-16T19:31:00.359Z,27.83
2017-10-16T19:33:28.013Z,28.87
2017-10-16T19:35:55.620Z,24.23
2017-10-16T19:38:24.116Z,23.70
2017-10-16T19:40:51.708Z,29.77
2017-10-16T19:43:19.357Z,21.70
2017-10-16T19:45:47.469Z,22.75
2017-10-16T19:48:16.487Z,31.40
2017-10-16T19:50:44.019Z,23.30
2017-10-16T19:53:11.740Z,23.05
2017-10-16T19:55:39.275Z,23.10
2017-10-16T19:58:07.802Z,23.63
2017-10-16T20:00:35.897Z,25.00
2017-10-16T20:03:03.436Z,24.47
2017-10-16T20:05:31.099Z,27.10
2017-10-16T20:07:58.684Z,30.53
2017-10-16T20:10:26.235Z,27.43
2017-10-16T20:12:53.775Z,24.90
2017-10-16T20:15:21.516Z,27.57
2017-10-16T20:17:49.645Z,30.03
2017-10-16T20:20:17.448Z,23.20
2017-10-16T20:22:45.156Z,24.03
2017-10-16T20:25:13.616Z,30.03
2017-10-16T20:27:41.204Z,22.53
2017-10-16T20:30:08.784Z,27.20
2017-10-16T20:32:36.339Z,22.80
2017-10-16T20:35:03.908Z,19.00
2017-10-16T20:37:31.622Z,27.80
2017-10-16T20:39:59.155Z,23.70
2017-10-16T20:42:27.472Z,19.60
2017-10-16T20:44:55.077Z,22.63
2017-10-16T20:47:22.885Z,25.20
2017-10-16T20:49:50.448Z,23.90
2017-10-16T20:52:18.023Z,22.10
2017-10-16T20:54:45.602Z,19.63
2017-10-16T20:57:14.584Z,21.25
2017-10-16T21:04:08.363Z,22.00
2017-10-16T21:06:36.118Z,20.30
2017-10-16T21:09:03.855Z,29.10
2017-10-16T21:11:31.982Z,22.92
2017-10-16T21:13:59.514Z,20.15
2017-10-16T21:16:27.135Z,17.20
2017-10-16T21:18:55.267Z,26.67
2017-10-16T21:21:22.943Z,23.95
2017-10-16T21:23:50.850Z,25.08
2017-10-16T21:26:18.503Z,24.43
2017-10-16T21:28:46.169Z,22.37
2017-10-16T21:31:20.408Z,21.23
2017-10-16T21:39:53.044Z,19.63
2017-10-16T21:42:20.615Z,17.43
2017-10-16T21:44:48.349Z,22.23
2017-10-16T21:47:16.679Z,20.17
2017-10-16T21:49:44.503Z,21.33
2017-10-16T21:52:12.146Z,18.43
2017-10-16T21:54:40.492Z,20.20
2017-10-16T21:57:08.040Z,20.87
2017-10-16T21:59:35.584Z,20.00
2017-10-16T22:02:03.160Z,22.20
2017-10-16T22:04:30.788Z,21.83
2017-10-16T22:06:58.490Z,19.77
2017-10-16T22:09:26.090Z,22.48
2017-10-16T22:11:53.619Z,24.43
2017-10-16T22:14:21.166Z,22.17
2017-10-16T22:16:48.747Z,18.80
2017-10-16T22:19:17.160Z,19.55
2017-10-16T22:21:44.708Z,22.40
2017-10-16T22:24:13.984Z,20.57
2017-10-16T22:26:41.525Z,19.43
2017-10-16T22:29:09.109Z,18.37
2017-10-16T22:31:36.743Z,33.53
2017-10-16T22:34:04.280Z,21.83
2017-10-16T22:36:31.816Z,24.00
2017-10-16T22:39:00.151Z,19.83
2017-10-16T22:41:27.687Z,16.70
2017-10-16T22:43:55.227Z,25.23
2017-10-16T22:46:22.812Z,24.40
2017-10-16T22:48:52.004Z,20.60
2017-10-16T22:51:19.547Z,17.23
2017-10-16T22:53:58.818Z,21.83
2017-10-16T22:56:26.359Z,14.27
2017-10-16T22:58:53.891Z,20.93
2017-10-16T23:01:21.468Z,17.95
2017-10-16T23:03:49.005Z,16.23
2017-10-16T23:06:17.304Z,30.08
2017-10-16T23:08:44.870Z,18.23
2017-10-16T23:11:12.408Z,15.47
2017-10-16T23:13:39.949Z,17.77
2017-10-16T23:16:07.559Z,22.62
2017-10-16T23:18:35.092Z,20.67
2017-10-16T23:21:03.244Z,19.10
2017-10-16T23:23:30.815Z,19.80
2017-10-16T23:25:59.116Z,21.90
2017-10-16T23:28:26.660Z,18.35
2017-10-16T23:30:54.231Z,22.40
2017-10-16T23:33:21.772Z,19.80
2017-10-16T23:35:50.079Z,18.30
2017-10-16T23:38:17.687Z,15.50
2017-10-16T23:40:45.219Z,19.33
2017-10-16T23:43:13.883Z,21.93
2017-10-16T23:45:41.459Z,27.62
2017-10-16T23:48:08.983Z,21.50
2017-10-16T23:50:36.521Z,21.23
2017-10-16T23:53:04.868Z,19.60
2017-10-16T23:55:32.420Z,20.85
2017-10-16T23:57:59.956Z,19.47
